Time;durP1;ratioP1;P1;durP2;ratioP2;P2;SDS_P1;SDS_P2;PMS_P1;PMS_P2;Temp;Humidity;BMP_temperature;BMP_pressure;BME280_temperature;BME280_humidity;BME280_pressure;Samples;Min_cycle;Max_cycle;Signal;HPM_P1;HPM_P2
2023/05/03 00:01:27;;;;;;;7.63;2.08;;;;;;;;;;4942913;29;20027;-93
2023/05/03 00:03:53;;;;;;;4.65;2.30;;;;;;;;;;4942916;29;20430;-92
2023/05/03 00:06:20;;;;;;;6.13;2.33;;;;;;;;;;4942766;29;20036;-92
2023/05/03 00:08:47;;;;;;;4.13;2.17;;;;;;;;;;4943903;29;20028;-92
2023/05/03 00:11:13;;;;;;;6.03;2.38;;;;;;;;;;4942701;29;20032;-92
2023/05/03 00:13:39;;;;;;;7.25;2.50;;;;;;;;;;4943884;29;20024;-93
2023/05/03 00:16:05;;;;;;;6.82;2.10;;;;;;;;;;4942714;29;20027;-93
2023/05/03 00:18:32;;;;;;;4.35;1.95;;;;;;;;;;4943508;29;20115;-89
2023/05/03 00:20:58;;;;;;;3.70;2.20;;;;;;;;;;4943554;29;20300;-94
2023/05/03 00:23:25;;;;;;;7.28;2.15;;;;;;;;;;4943407;29;20534;-94
2023/05/03 00:28:55;;;;;;;5.60;2.40;;;;;;;;;;4943164;29;20179;-91
2023/05/03 00:31:21;;;;;;;3.38;2.00;;;;;;;;;;4942464;29;20441;-92
2023/05/03 00:33:47;;;;;;;5.30;2.20;;;;;;;;;;4941769;29;20044;-91
2023/05/03 00:36:14;;;;;;;8.82;2.72;;;;;;;;;;4943159;29;20049;-91
2023/05/03 00:38:40;;;;;;;6.78;2.38;;;;;;;;;;4942230;29;20042;-91
2023/05/03 00:41:07;;;;;;;5.03;2.08;;;;;;;;;;4943437;29;20027;-91
2023/05/03 00:43:34;;;;;;;5.68;2.00;;;;;;;;;;4943225;29;20108;-92
2023/05/03 00:46:02;;;;;;;4.00;2.10;;;;;;;;;;4943061;29;20032;-91
2023/05/03 00:48:28;;;;;;;3.97;2.28;;;;;;;;;;4942861;29;20028;-91
2023/05/03 00:50:56;;;;;;;2.83;1.75;;;;;;;;;;4942827;29;20032;-92
2023/05/03 00:53:23;;;;;;;5.65;2.28;;;;;;;;;;4943037;29;20444;-94
2023/05/03 01:01:56;;;;;;;5.85;2.17;;;;;;;;;;4943218;29;20042;-94
2023/05/03 01:04:22;;;;;;;4.47;2.25;;;;;;;;;;4941750;29;20406;-92
2023/05/03 01:06:58;;;;;;;4.68;2.03;;;;;;;;;;4942627;29;20114;-93
2023/05/03 01:09:30;;;;;;;7.85;2.58;;;;;;;;;;4948038;29;20027;-93
2023/05/03 01:12:15;;;;;;;6.05;1.98;;;;;;;;;;4945993;29;20027;-92
2023/05/03 01:15:01;;;;;;;2.63;1.92;;;;;;;;;;4944366;29;20041;-93
2023/05/03 01:17:28;;;;;;;4.00;2.13;;;;;;;;;;4883828;29;20330;-93
2023/05/03 01:20:04;;;;;;;8.68;2.05;;;;;;;;;;4883718;29;20060;-92
2023/05/03 01:22:55;;;;;;;3.35;1.80;;;;;;;;;;4884190;29;20340;-93
2023/05/03 01:28:35;;;;;;;6.57;2.30;;;;;;;;;;4882785;29;20096;-92
2023/05/03 01:31:01;;;;;;;3.25;1.60;;;;;;;;;;4865545;29;20038;-92
2023/05/03 01:33:27;;;;;;;4.55;1.95;;;;;;;;;;4865435;29;20022;-92
2023/05/03 01:35:55;;;;;;;4.05;1.95;;;;;;;;;;4864857;29;20049;-91
2023/05/03 01:38:22;;;;;;;5.18;2.05;;;;;;;;;;4865390;29;20029;-93
2023/05/03 01:40:52;;;;;;;4.65;1.60;;;;;;;;;;4865270;29;20041;-92
2023/05/03 01:43:19;;;;;;;5.38;2.05;;;;;;;;;;4865218;29;20190;-92
2023/05/03 01:45:45;;;;;;;5.13;2.25;;;;;;;;;;4865220;29;20029;-93
2023/05/03 01:48:13;;;;;;;5.15;1.88;;;;;;;;;;4864991;29;20033;-92
2023/05/03 01:50:39;;;;;;;3.78;2.00;;;;;;;;;;4865372;29;20033;-92
2023/05/03 01:53:05;;;;;;;5.68;1.98;;;;;;;;;;4865132;29;20061;-93
2023/05/03 01:55:31;;;;;;;4.25;1.90;;;;;;;;;;4902605;29;20087;-92
2023/05/03 01:57:57;;;;;;;6.22;2.05;;;;;;;;;;4921725;29;20032;-94
2023/05/03 02:00:23;;;;;;;8.23;2.00;;;;;;;;;;4921735;29;20368;-94
2023/05/03 02:02:49;;;;;;;2.95;2.00;;;;;;;;;;4920962;29;20319;-93
2023/05/03 02:05:15;;;;;;;4.88;2.20;;;;;;;;;;4922864;29;20031;-92
2023/05/03 02:07:42;;;;;;;4.05;2.17;;;;;;;;;;4922689;29;20067;-93
2023/05/03 02:10:13;;;;;;;3.15;1.70;;;;;;;;;;4922593;29;20043;-91
2023/05/03 02:18:46;;;;;;;6.13;1.90;;;;;;;;;;4922312;29;20075;-91
2023/05/03 02:21:12;;;;;;;2.60;1.80;;;;;;;;;;4921482;29;20147;-92
2023/05/03 02:23:38;;;;;;;2.55;2.00;;;;;;;;;;4922138;29;20032;-91
2023/05/03 02:26:41;;;;;;;5.18;2.20;;;;;;;;;;4922365;29;20372;-91
2023/05/03 02:29:08;;;;;;;7.72;2.25;;;;;;;;;;4922500;29;20058;-92
2023/05/03 02:31:34;;;;;;;4.22;2.00;;;;;;;;;;4922457;29;20084;-91
2023/05/03 02:34:00;;;;;;;6.47;1.95;;;;;;;;;;4936821;29;20084;-91
2023/05/03 02:36:26;;;;;;;4.75;2.15;;;;;;;;;;4921883;29;20028;-91
2023/05/03 02:38:53;;;;;;;4.40;2.08;;;;;;;;;;4936870;29;20066;-91
2023/05/03 02:41:37;;;;;;;5.78;1.83;;;;;;;;;;4936861;29;20038;-93
2023/05/03 02:44:03;;;;;;;4.95;2.28;;;;;;;;;;4922081;29;20020;-92
2023/05/03 02:46:30;;;;;;;4.22;2.00;;;;;;;;;;4921779;29;20028;-92
2023/05/03 02:48:56;;;;;;;4.97;2.20;;;;;;;;;;4938214;29;20047;-93
2023/05/03 02:51:22;;;;;;;2.80;1.75;;;;;;;;;;4940703;29;20114;-94
2023/05/03 02:53:48;;;;;;;5.35;2.35;;;;;;;;;;4939830;29;20039;-93
2023/05/03 02:56:14;;;;;;;2.28;1.80;;;;;;;;;;4940405;29;20311;-94
2023/05/03 02:58:40;;;;;;;2.90;2.05;;;;;;;;;;4941245;29;20309;-94
2023/05/03 03:01:06;;;;;;;6.15;2.58;;;;;;;;;;4932322;29;20047;-91
2023/05/03 03:03:32;;;;;;;5.78;2.42;;;;;;;;;;4921586;29;20031;-90
2023/05/03 03:05:58;;;;;;;2.92;2.10;;;;;;;;;;4936467;29;20052;-91
2023/05/03 03:08:25;;;;;;;5.20;2.30;;;;;;;;;;4936554;29;20024;-91
2023/05/03 03:10:51;;;;;;;4.68;2.00;;;;;;;;;;4921637;29;20027;-91
2023/05/03 03:13:17;;;;;;;3.72;1.77;;;;;;;;;;4936058;29;20083;-92
2023/05/03 03:15:43;;;;;;;5.60;2.00;;;;;;;;;;4921272;29;20043;-91
2023/05/03 03:18:09;;;;;;;4.35;2.22;;;;;;;;;;4921469;29;20021;-89
2023/05/03 03:20:35;;;;;;;7.32;2.30;;;;;;;;;;4936239;29;20072;-88
2023/05/03 03:23:01;;;;;;;5.78;2.33;;;;;;;;;;4921263;29;20034;-91
2023/05/03 03:25:27;;;;;;;7.80;2.33;;;;;;;;;;4921106;29;20434;-90
2023/05/03 03:28:30;;;;;;;5.97;2.50;;;;;;;;;;4921475;29;20028;-90
2023/05/03 03:30:56;;;;;;;4.15;2.15;;;;;;;;;;4939843;29;20040;-89
2023/05/03 03:33:24;;;;;;;3.40;2.13;;;;;;;;;;4939136;29;20027;-83
2023/05/03 03:35:50;;;;;;;5.45;2.40;;;;;;;;;;4939768;29;20031;-89
2023/05/03 03:38:16;;;;;;;11.65;2.50;;;;;;;;;;4959033;29;20023;-90
2023/05/03 03:41:16;;;;;;;6.85;2.03;;;;;;;;;;4959355;29;20034;-90
2023/05/03 03:43:42;;;;;;;6.80;2.78;;;;;;;;;;4942323;29;20047;-90
2023/05/03 03:46:08;;;;;;;6.05;2.70;;;;;;;;;;4942515;29;20071;-89
2023/05/03 03:48:34;;;;;;;5.93;2.05;;;;;;;;;;4959425;29;20039;-90
2023/05/03 03:51:00;;;;;;;6.13;2.50;;;;;;;;;;4959283;29;20427;-90
2023/05/03 03:53:26;;;;;;;2.78;2.00;;;;;;;;;;4959503;29;20110;-89
2023/05/03 03:55:52;;;;;;;9.32;2.70;;;;;;;;;;4942260;29;20038;-90
2023/05/03 03:58:18;;;;;;;6.57;2.60;;;;;;;;;;4959432;29;20090;-89
2023/05/03 04:00:45;;;;;;;5.68;2.67;;;;;;;;;;4959542;29;20023;-89
2023/05/03 04:03:11;;;;;;;5.22;2.53;;;;;;;;;;4942315;29;20023;-88
2023/05/03 04:05:37;;;;;;;7.55;2.53;;;;;;;;;;4959533;29;20023;-90
2023/05/03 04:08:03;;;;;;;7.47;2.80;;;;;;;;;;4959104;29;20054;-90
2023/05/03 04:10:29;;;;;;;6.93;2.75;;;;;;;;;;4959361;29;20059;-90
2023/05/03 04:16:00;;;;;;;5.20;2.20;;;;;;;;;;4958898;29;20038;-88
2023/05/03 04:18:26;;;;;;;4.63;2.50;;;;;;;;;;4945257;29;20027;-88
2023/05/03 04:20:52;;;;;;;6.88;2.78;;;;;;;;;;4938992;29;20024;-89
2023/05/03 04:23:18;;;;;;;5.07;2.33;;;;;;;;;;4939998;29;20028;-88
2023/05/03 04:25:47;;;;;;;3.95;2.30;;;;;;;;;;4938853;29;20035;-91
2023/05/03 04:28:14;;;;;;;3.30;2.50;;;;;;;;;;4951449;29;20048;-89
2023/05/03 04:30:45;;;;;;;4.63;2.38;;;;;;;;;;4962510;29;20073;-90
2023/05/03 04:33:12;;;;;;;12.43;3.08;;;;;;;;;;4962776;29;20304;-90
2023/05/03 04:35:38;;;;;;;10.75;2.50;;;;;;;;;;4962302;29;20057;-89
2023/05/03 04:38:04;;;;;;;7.85;2.75;;;;;;;;;;4962319;29;20031;-89
2023/05/03 04:40:30;;;;;;;6.72;2.50;;;;;;;;;;4962686;29;20030;-89
2023/05/03 04:43:17;;;;;;;5.60;2.40;;;;;;;;;;4947571;29;20092;-90
2023/05/03 04:45:43;;;;;;;4.50;2.42;;;;;;;;;;4946999;29;20037;-89
2023/05/03 04:48:09;;;;;;;10.38;2.33;;;;;;;;;;4945264;29;20023;-90
2023/05/03 04:50:35;;;;;;;9.40;3.03;;;;;;;;;;4962399;29;20035;-89
2023/05/03 04:53:01;;;;;;;8.98;2.72;;;;;;;;;;4945316;29;20031;-89
2023/05/03 04:55:27;;;;;;;4.50;2.53;;;;;;;;;;4944803;29;20035;-87
2023/05/03 04:57:54;;;;;;;10.10;2.78;;;;;;;;;;4961817;29;20035;-89
2023/05/03 05:00:21;;;;;;;7.28;2.63;;;;;;;;;;4962276;29;20330;-88
2023/05/03 05:02:47;;;;;;;4.00;2.53;;;;;;;;;;4945057;29;20436;-89
2023/05/03 05:05:13;;;;;;;5.28;2.33;;;;;;;;;;4945116;29;20034;-89
2023/05/03 05:07:39;;;;;;;9.77;2.38;;;;;;;;;;4945025;29;20030;-89
2023/05/03 05:10:06;;;;;;;7.40;2.75;;;;;;;;;;4944857;29;20035;-88
2023/05/03 05:15:36;;;;;;;7.57;2.58;;;;;;;;;;4961860;29;20046;-89
2023/05/03 05:18:02;;;;;;;13.23;3.00;;;;;;;;;;4944488;29;20046;-91
2023/05/03 05:20:28;;;;;;;9.23;2.38;;;;;;;;;;4961432;29;20035;-91
2023/05/03 05:22:54;;;;;;;7.43;2.60;;;;;;;;;;4944257;29;20035;-91
2023/05/03 05:25:20;;;;;;;8.43;2.80;;;;;;;;;;4962006;29;20375;-90
2023/05/03 05:31:03;;;;;;;5.40;2.85;;;;;;;;;;4961667;29;20357;-89
2023/05/03 05:33:30;;;;;;;9.05;3.38;;;;;;;;;;4961649;29;20054;-89
2023/05/03 05:35:56;;;;;;;5.90;2.83;;;;;;;;;;4944864;29;20038;-89
2023/05/03 05:38:22;;;;;;;7.93;2.75;;;;;;;;;;4940044;29;20019;-90
2023/05/03 05:40:48;;;;;;;9.30;3.03;;;;;;;;;;4940411;29;20031;-89
2023/05/03 05:43:14;;;;;;;11.85;3.30;;;;;;;;;;4941711;29;20030;-90
2023/05/03 05:45:40;;;;;;;6.60;3.35;;;;;;;;;;4941234;29;20032;-90
2023/05/03 05:48:07;;;;;;;10.48;3.10;;;;;;;;;;4940297;29;20130;-89
2023/05/03 05:50:33;;;;;;;4.47;2.80;;;;;;;;;;4941909;29;20039;-90
2023/05/03 05:52:59;;;;;;;13.52;4.30;;;;;;;;;;4940075;29;20036;-88
2023/05/03 05:55:25;;;;;;;7.03;2.78;;;;;;;;;;4941623;29;20028;-90
2023/05/03 06:01:08;;;;;;;7.53;3.05;;;;;;;;;;4941633;29;20368;-91
2023/05/03 06:03:34;;;;;;;8.45;3.10;;;;;;;;;;4941846;29;20134;-90
2023/05/03 06:06:00;;;;;;;7.43;3.30;;;;;;;;;;4942858;29;20110;-90
2023/05/03 06:08:26;;;;;;;7.15;2.83;;;;;;;;;;4940598;29;20035;-91
2023/05/03 06:10:52;;;;;;;6.88;3.15;;;;;;;;;;4941645;29;20035;-91
2023/05/03 06:16:23;;;;;;;7.70;3.20;;;;;;;;;;4941447;29;20042;-91
2023/05/03 06:18:49;;;;;;;7.78;3.60;;;;;;;;;;4944607;29;20067;-90
2023/05/03 06:21:15;;;;;;;6.65;2.88;;;;;;;;;;4940427;29;20036;-90
2023/05/03 06:23:41;;;;;;;4.88;2.95;;;;;;;;;;4941635;29;20020;-89
2023/05/03 06:26:07;;;;;;;8.85;2.60;;;;;;;;;;4940255;29;20334;-90
2023/05/03 06:28:52;;;;;;;7.78;3.22;;;;;;;;;;4941489;29;20023;-90
2023/05/03 06:31:18;;;;;;;5.95;2.83;;;;;;;;;;4922415;29;20122;-89
2023/05/03 06:33:44;;;;;;;8.02;2.60;;;;;;;;;;4922570;29;20080;-89
2023/05/03 06:36:11;;;;;;;5.88;2.38;;;;;;;;;;4941178;29;20315;-90
2023/05/03 06:38:37;;;;;;;13.00;2.30;;;;;;;;;;4941353;29;20038;-89
2023/05/03 06:41:03;;;;;;;7.15;2.35;;;;;;;;;;4924041;29;20027;-90
2023/05/03 06:43:30;;;;;;;6.60;2.22;;;;;;;;;;4924167;29;20407;-91
2023/05/03 06:45:56;;;;;;;6.05;2.60;;;;;;;;;;4939366;29;20036;-89
2023/05/03 06:48:22;;;;;;;7.88;2.83;;;;;;;;;;4940685;29;20031;-90
2023/05/03 06:50:48;;;;;;;4.47;2.63;;;;;;;;;;4923648;29;20038;-90
2023/05/03 06:53:14;;;;;;;5.85;2.72;;;;;;;;;;4924163;29;20032;-89
2023/05/03 06:55:43;;;;;;;6.35;2.60;;;;;;;;;;4924169;29;20082;-90
2023/05/03 06:58:10;;;;;;;5.65;2.33;;;;;;;;;;4924060;29;20028;-90
2023/05/03 07:00:38;;;;;;;6.38;2.65;;;;;;;;;;4922879;29;20063;-90
2023/05/03 07:03:04;;;;;;;8.27;2.30;;;;;;;;;;4923779;29;20040;-90
2023/05/03 07:05:30;;;;;;;12.25;2.90;;;;;;;;;;4917039;29;20036;-91
2023/05/03 07:07:57;;;;;;;4.22;2.25;;;;;;;;;;4930450;29;20020;-90
2023/05/03 07:10:24;;;;;;;4.35;2.10;;;;;;;;;;4921214;29;20020;-90
2023/05/03 07:15:54;;;;;;;9.85;2.40;;;;;;;;;;4919932;29;20116;-89
2023/05/03 07:18:20;;;;;;;6.75;2.72;;;;;;;;;;4917199;29;20067;-87
2023/05/03 07:20:47;;;;;;;3.92;2.25;;;;;;;;;;4904562;29;20080;-88
2023/05/03 07:23:14;;;;;;;4.65;2.10;;;;;;;;;;4914843;29;20028;-90
2023/05/03 07:25:41;;;;;;;7.03;2.55;;;;;;;;;;4921297;29;20284;-89
2023/05/03 07:28:07;;;;;;;9.50;3.00;;;;;;;;;;4921118;29;20111;-90
2023/05/03 07:30:33;;;;;;;13.75;2.80;;;;;;;;;;4932644;29;20052;-91
2023/05/03 07:32:59;;;;;;;32.85;5.63;;;;;;;;;;4936623;29;20032;-91
2023/05/03 07:35:26;;;;;;;10.68;2.53;;;;;;;;;;4931653;29;20494;-89
2023/05/03 07:37:52;;;;;;;6.97;2.80;;;;;;;;;;4932880;29;20438;-90
2023/05/03 07:40:21;;;;;;;8.57;2.60;;;;;;;;;;4933503;29;20028;-89
2023/05/03 07:42:48;;;;;;;12.82;3.53;;;;;;;;;;4940141;29;20495;-90
2023/05/03 07:45:14;;;;;;;10.70;2.70;;;;;;;;;;4955089;29;20335;-91
2023/05/03 07:47:40;;;;;;;11.85;2.80;;;;;;;;;;4940442;29;20040;-92
2023/05/03 07:50:07;;;;;;;6.07;2.45;;;;;;;;;;4944950;29;20043;-90
2023/05/03 07:52:36;;;;;;;13.43;3.75;;;;;;;;;;4910408;29;20058;-90
2023/05/03 07:55:03;;;;;;;5.32;2.65;;;;;;;;;;4936279;29;20423;-90
2023/05/03 07:57:29;;;;;;;6.05;2.45;;;;;;;;;;4912992;29;20028;-89
2023/05/03 07:59:56;;;;;;;13.48;2.67;;;;;;;;;;4922334;29;20027;-93
2023/05/03 08:02:22;;;;;;;11.95;2.63;;;;;;;;;;4923652;29;20099;-92
2023/05/03 08:04:48;;;;;;;11.23;2.25;;;;;;;;;;4924981;29;20055;-93
2023/05/03 08:07:16;;;;;;;10.23;2.63;;;;;;;;;;4924997;29;20036;-92
2023/05/03 08:09:42;;;;;;;19.42;2.80;;;;;;;;;;4939559;29;20047;-91
2023/05/03 08:12:27;;;;;;;4.15;2.53;;;;;;;;;;4939764;29;20033;-92
2023/05/03 08:14:53;;;;;;;6.43;2.70;;;;;;;;;;4939375;29;20119;-91
2023/05/03 08:17:20;;;;;;;6.03;2.50;;;;;;;;;;4924303;29;20024;-93
2023/05/03 08:19:46;;;;;;;7.65;2.40;;;;;;;;;;4924483;29;20071;-92
2023/05/03 08:22:13;;;;;;;6.03;2.47;;;;;;;;;;4924423;29;20036;-91
2023/05/03 08:24:41;;;;;;;6.57;2.88;;;;;;;;;;4939725;29;20024;-92
2023/05/03 08:30:11;;;;;;;11.77;2.85;;;;;;;;;;4944093;29;20057;-95
2023/05/03 08:32:37;;;;;;;13.10;2.60;;;;;;;;;;4949446;29;20035;-83
2023/05/03 08:35:05;;;;;;;9.55;2.58;;;;;;;;;;4942809;29;20031;-84
2023/05/03 08:37:37;;;;;;;11.50;2.53;;;;;;;;;;4941142;29;20404;-84
2023/05/03 08:40:05;;;;;;;16.55;2.80;;;;;;;;;;4938996;29;20024;-94
2023/05/03 08:42:32;;;;;;;8.93;2.50;;;;;;;;;;4926790;29;20032;-91
2023/05/03 08:44:58;;;;;;;9.23;2.95;;;;;;;;;;4924115;29;20028;-95
2023/05/03 08:47:25;;;;;;;12.13;2.80;;;;;;;;;;4923045;29;20028;-95
2023/05/03 08:49:52;;;;;;;11.82;2.83;;;;;;;;;;4923044;29;20043;-94
2023/05/03 08:52:20;;;;;;;9.07;2.22;;;;;;;;;;4923781;29;20115;-95
2023/05/03 08:54:48;;;;;;;6.28;2.10;;;;;;;;;;4923825;29;20419;-94
2023/05/03 08:57:14;;;;;;;8.07;2.20;;;;;;;;;;4923752;29;20040;-94
2023/05/03 08:59:52;;;;;;;7.60;2.50;;;;;;;;;;4922277;29;20032;-93
2023/05/03 09:02:18;;;;;;;11.77;2.63;;;;;;;;;;4923034;29;20080;-94
2023/05/03 09:04:44;;;;;;;6.28;2.42;;;;;;;;;;4923764;29;20063;-95
2023/05/03 09:07:11;;;;;;;11.63;2.97;;;;;;;;;;4922825;29;20036;-94
2023/05/03 09:09:37;;;;;;;10.18;2.45;;;;;;;;;;4922897;29;20068;-93
2023/05/03 09:15:07;;;;;;;11.05;2.35;;;;;;;;;;4943851;29;20034;-93
2023/05/03 09:17:33;;;;;;;10.88;2.10;;;;;;;;;;4961523;29;20031;-94
2023/05/03 09:19:59;;;;;;;9.23;2.60;;;;;;;;;;4944668;29;20029;-94
2023/05/03 09:22:27;;;;;;;12.23;2.78;;;;;;;;;;4954506;29;20122;-94
2023/05/03 09:24:57;;;;;;;9.98;2.55;;;;;;;;;;4940115;29;20028;-94
2023/05/03 09:30:29;;;;;;;6.85;2.10;;;;;;;;;;4941305;29;20150;-93
2023/05/03 09:32:55;;;;;;;5.95;2.15;;;;;;;;;;4942316;29;20055;-93
2023/05/03 09:35:21;;;;;;;7.15;2.13;;;;;;;;;;4934869;29;20035;-94
2023/05/03 09:37:47;;;;;;;8.18;2.30;;;;;;;;;;4942410;29;20036;-94
2023/05/03 09:40:17;;;;;;;7.22;2.30;;;;;;;;;;4942046;29;20055;-93
2023/05/03 09:43:02;;;;;;;5.20;2.42;;;;;;;;;;4941804;29;20426;-93
2023/05/03 09:45:30;;;;;;;6.68;2.10;;;;;;;;;;4947200;29;20019;-93
2023/05/03 09:47:56;;;;;;;7.50;2.40;;;;;;;;;;4928956;29;20043;-93
2023/05/03 09:50:25;;;;;;;6.65;2.47;;;;;;;;;;4937370;29;20032;-94
2023/05/03 09:52:51;;;;;;;4.05;2.30;;;;;;;;;;4944085;29;20034;-94
2023/05/03 09:55:18;;;;;;;6.18;2.30;;;;;;;;;;4946510;29;20322;-85
2023/05/03 10:00:50;;;;;;;6.28;1.95;;;;;;;;;;4957383;29;20027;-87
2023/05/03 10:03:19;;;;;;;7.68;2.03;;;;;;;;;;4941570;29;20102;-83
2023/05/03 10:05:45;;;;;;;10.15;2.67;;;;;;;;;;4941463;29;20028;-86
2023/05/03 10:08:14;;;;;;;4.18;2.08;;;;;;;;;;4943790;29;20043;-85
2023/05/03 10:10:43;;;;;;;7.50;2.40;;;;;;;;;;4948707;29;20019;-88
2023/05/03 10:13:10;;;;;;;3.88;2.03;;;;;;;;;;4956216;29;20170;-92
2023/05/03 10:15:36;;;;;;;6.18;1.90;;;;;;;;;;4958867;29;20023;-91
2023/05/03 10:18:05;;;;;;;4.85;2.10;;;;;;;;;;4946687;29;20032;-91
2023/05/03 10:20:41;;;;;;;8.65;2.35;;;;;;;;;;4956646;29;20027;-91
2023/05/03 10:23:09;;;;;;;11.20;2.30;;;;;;;;;;4956412;29;20020;-90
2023/05/03 10:25:36;;;;;;;5.10;1.95;;;;;;;;;;4940946;29;20055;-91
2023/05/03 10:28:08;;;;;;;7.82;2.20;;;;;;;;;;4940242;29;20032;-90
2023/05/03 10:30:38;;;;;;;9.18;2.80;;;;;;;;;;4951875;29;20047;-91
2023/05/03 10:33:13;;;;;;;7.28;2.13;;;;;;;;;;4943611;29;20437;-94
2023/05/03 10:35:41;;;;;;;10.80;2.22;;;;;;;;;;4955039;29;20038;-94
2023/05/03 10:38:17;;;;;;;9.63;1.95;;;;;;;;;;4956223;29;20035;-95
2023/05/03 10:40:43;;;;;;;7.35;2.80;;;;;;;;;;4956107;29;20415;-95
2023/05/03 10:43:28;;;;;;;6.05;2.05;;;;;;;;;;4955828;29;20038;-95
2023/05/03 10:46:01;;;;;;;6.20;1.77;;;;;;;;;;4955926;29;20111;-95
2023/05/03 10:48:28;;;;;;;7.15;2.05;;;;;;;;;;4940547;28;20407;-93
2023/05/03 10:50:55;;;;;;;8.07;2.10;;;;;;;;;;4955389;29;20047;-94
2023/05/03 10:53:34;;;;;;;4.32;2.15;;;;;;;;;;4941045;29;20024;-93
2023/05/03 10:56:06;;;;;;;4.05;1.73;;;;;;;;;;4940601;29;20062;-93
2023/05/03 10:58:34;;;;;;;4.15;1.60;;;;;;;;;;4955654;29;20331;-94
2023/05/03 11:01:02;;;;;;;6.65;1.77;;;;;;;;;;4940543;29;20429;-92
2023/05/03 11:03:34;;;;;;;4.50;1.75;;;;;;;;;;4955716;29;20026;-94
2023/05/03 11:06:02;;;;;;;5.57;2.28;;;;;;;;;;4956190;29;20327;-94
2023/05/03 11:08:36;;;;;;;4.88;2.03;;;;;;;;;;4955851;29;20122;-94
2023/05/03 11:11:08;;;;;;;3.75;1.52;;;;;;;;;;4955671;29;20032;-94
2023/05/03 11:13:34;;;;;;;10.85;3.20;;;;;;;;;;4940300;29;20042;-94
2023/05/03 11:16:00;;;;;;;2.40;1.70;;;;;;;;;;4940541;29;20486;-94
2023/05/03 11:18:26;;;;;;;4.40;1.90;;;;;;;;;;4940630;29;20035;-94
2023/05/03 11:20:53;;;;;;;6.47;1.77;;;;;;;;;;4940548;29;20102;-94
2023/05/03 11:23:19;;;;;;;3.08;1.60;;;;;;;;;;4955573;29;20171;-93
2023/05/03 11:25:45;;;;;;;6.38;2.10;;;;;;;;;;4940525;29;20418;-94
2023/05/03 11:28:11;;;;;;;5.50;2.40;;;;;;;;;;4940157;29;20032;-94
2023/05/03 11:30:37;;;;;;;11.80;4.03;;;;;;;;;;4951963;28;20123;-95
2023/05/03 11:33:03;;;;;;;8.30;2.10;;;;;;;;;;4952124;29;20028;-95
2023/05/03 11:35:30;;;;;;;7.70;1.92;;;;;;;;;;4921988;29;20021;-95
2023/05/03 11:37:57;;;;;;;5.50;1.80;;;;;;;;;;4925567;29;20032;-94
2023/05/03 11:40:23;;;;;;;3.20;1.67;;;;;;;;;;4956247;29;20420;-94
2023/05/03 11:42:57;;;;;;;3.75;1.70;;;;;;;;;;4955973;29;20043;-93
2023/05/03 11:45:24;;;;;;;3.80;1.65;;;;;;;;;;4925255;29;20416;-94
2023/05/03 11:47:50;;;;;;;2.80;1.70;;;;;;;;;;4924690;29;20035;-94
2023/05/03 11:50:17;;;;;;;9.10;1.85;;;;;;;;;;4955589;29;20127;-93
2023/05/03 11:52:44;;;;;;;4.13;1.92;;;;;;;;;;4924938;29;20377;-95
2023/05/03 11:55:11;;;;;;;5.80;2.60;;;;;;;;;;4924970;29;20054;-96
2023/05/03 11:57:37;;;;;;;7.82;1.85;;;;;;;;;;4955518;29;20028;-96
2023/05/03 12:00:15;;;;;;;4.47;1.80;;;;;;;;;;4924775;29;20043;-94
2023/05/03 12:02:42;;;;;;;6.57;1.80;;;;;;;;;;4955633;29;20300;-95
2023/05/03 12:05:08;;;;;;;4.43;1.50;;;;;;;;;;4924687;29;20028;-95
2023/05/03 12:07:37;;;;;;;4.22;1.60;;;;;;;;;;4924681;29;20027;-95
2023/05/03 12:10:15;;;;;;;4.00;1.65;;;;;;;;;;4924837;29;20028;-95
2023/05/03 12:12:50;;;;;;;4.72;1.70;;;;;;;;;;4955597;29;20419;-95
2023/05/03 12:15:26;;;;;;;5.63;1.90;;;;;;;;;;4955383;29;20032;-95
2023/05/03 12:17:55;;;;;;;3.25;1.70;;;;;;;;;;4924685;29;20028;-95
2023/05/03 12:20:22;;;;;;;5.80;2.08;;;;;;;;;;4955452;29;20059;-92
2023/05/03 12:22:52;;;;;;;4.43;1.85;;;;;;;;;;4955340;29;20482;-94
2023/05/03 12:25:18;;;;;;;7.18;2.08;;;;;;;;;;4924792;29;20024;-94
2023/05/03 12:27:44;;;;;;;4.35;1.70;;;;;;;;;;4924501;29;20028;-95
2023/05/03 12:30:11;;;;;;;4.22;1.95;;;;;;;;;;4955151;28;20090;-95
2023/05/03 12:32:37;;;;;;;6.88;2.42;;;;;;;;;;4954762;29;20316;-94
2023/05/03 12:35:10;;;;;;;3.40;1.77;;;;;;;;;;4924312;29;20028;-93
2023/05/03 12:37:36;;;;;;;6.72;2.00;;;;;;;;;;4924204;29;20119;-93
2023/05/03 12:40:03;;;;;;;5.22;1.70;;;;;;;;;;4924432;29;20032;-93
2023/05/03 12:42:29;;;;;;;7.53;2.10;;;;;;;;;;4924220;29;20044;-94
2023/05/03 12:44:59;;;;;;;4.03;1.77;;;;;;;;;;4954277;29;20051;-93
2023/05/03 12:47:26;;;;;;;4.07;1.92;;;;;;;;;;4954262;28;20103;-93
2023/05/03 12:49:52;;;;;;;4.47;1.75;;;;;;;;;;4924361;29;20032;-93
2023/05/03 12:52:18;;;;;;;3.53;1.88;;;;;;;;;;4923743;29;20028;-93
2023/05/03 12:54:47;;;;;;;3.70;1.90;;;;;;;;;;4923892;29;20024;-93
2023/05/03 12:57:13;;;;;;;3.08;1.80;;;;;;;;;;4923868;29;20036;-93
2023/05/03 12:59:40;;;;;;;3.58;1.92;;;;;;;;;;4923859;29;20462;-93
2023/05/03 13:02:12;;;;;;;5.95;1.90;;;;;;;;;;4923761;29;20028;-94
2023/05/03 13:04:39;;;;;;;2.78;1.80;;;;;;;;;;4923597;29;20044;-93
2023/05/03 13:07:05;;;;;;;6.63;1.90;;;;;;;;;;4922694;29;20059;-92
2023/05/03 13:09:32;;;;;;;6.63;1.98;;;;;;;;;;4938140;29;20040;-93
2023/05/03 13:11:58;;;;;;;12.75;2.38;;;;;;;;;;4922738;29;20021;-94
2023/05/03 13:14:24;;;;;;;8.57;2.28;;;;;;;;;;4923717;29;20031;-94
2023/05/03 13:16:50;;;;;;;5.18;1.90;;;;;;;;;;4923554;29;20080;-94
2023/05/03 13:19:16;;;;;;;8.63;2.00;;;;;;;;;;4923740;29;20079;-93
2023/05/03 13:21:43;;;;;;;7.30;2.22;;;;;;;;;;4923234;29;20031;-93
2023/05/03 13:24:09;;;;;;;5.10;1.88;;;;;;;;;;4923531;29;20316;-94
2023/05/03 13:26:35;;;;;;;4.38;1.90;;;;;;;;;;4923401;29;20111;-94
2023/05/03 13:29:01;;;;;;;4.53;1.98;;;;;;;;;;4922972;29;20028;-93
2023/05/03 13:31:28;;;;;;;3.83;2.10;;;;;;;;;;4922194;29;20052;-94
2023/05/03 13:33:55;;;;;;;4.20;1.83;;;;;;;;;;4923261;29;20032;-94
2023/05/03 13:36:22;;;;;;;8.40;2.20;;;;;;;;;;4922980;29;20039;-94
2023/05/03 13:38:48;;;;;;;5.32;2.05;;;;;;;;;;4922980;29;20016;-94
2023/05/03 13:41:15;;;;;;;8.70;2.05;;;;;;;;;;4922277;29;20399;-95
2023/05/03 13:43:41;;;;;;;9.85;2.20;;;;;;;;;;4923084;29;20034;-94
2023/05/03 13:46:08;;;;;;;6.70;2.00;;;;;;;;;;4922012;29;20028;-92
2023/05/03 13:48:34;;;;;;;8.70;2.90;;;;;;;;;;4921795;29;20619;-93
2023/05/03 13:51:06;;;;;;;9.68;2.00;;;;;;;;;;4921869;29;20067;-93
2023/05/03 13:53:32;;;;;;;6.57;2.10;;;;;;;;;;4922979;29;20036;-92
2023/05/03 13:55:58;;;;;;;6.18;2.53;;;;;;;;;;4923041;29;20032;-94
2023/05/03 13:58:24;;;;;;;4.80;1.88;;;;;;;;;;4922511;29;20063;-93
2023/05/03 14:00:50;;;;;;;4.97;1.80;;;;;;;;;;4921371;29;20032;-94
2023/05/03 14:03:16;;;;;;;4.50;1.80;;;;;;;;;;4921671;29;20032;-95
2023/05/03 14:05:42;;;;;;;6.90;2.50;;;;;;;;;;4922456;29;20410;-94
2023/05/03 14:08:08;;;;;;;4.57;2.25;;;;;;;;;;4922787;29;20032;-94
2023/05/03 14:10:35;;;;;;;5.97;1.92;;;;;;;;;;4921637;29;20028;-94
2023/05/03 14:13:01;;;;;;;3.90;2.10;;;;;;;;;;4922220;29;20035;-95
2023/05/03 14:15:27;;;;;;;5.35;2.38;;;;;;;;;;4922530;29;20032;-95
2023/05/03 14:17:53;;;;;;;6.97;2.55;;;;;;;;;;4921048;29;20032;-95
2023/05/03 14:20:20;;;;;;;3.00;2.00;;;;;;;;;;4922316;29;20032;-94
2023/05/03 14:22:46;;;;;;;4.55;2.47;;;;;;;;;;4922217;29;20056;-95
2023/05/03 14:25:12;;;;;;;5.90;2.20;;;;;;;;;;4921232;29;20035;-94
2023/05/03 14:27:38;;;;;;;7.15;2.00;;;;;;;;;;4922433;29;20071;-94
2023/05/03 14:30:04;;;;;;;4.75;2.00;;;;;;;;;;4921148;29;20139;-95
2023/05/03 14:32:32;;;;;;;4.45;2.17;;;;;;;;;;4921338;29;20024;-94
2023/05/03 14:34:58;;;;;;;4.50;2.50;;;;;;;;;;4921109;29;20032;-95
2023/05/03 14:37:24;;;;;;;5.05;2.53;;;;;;;;;;4922046;29;20120;-95
2023/05/03 14:39:50;;;;;;;3.35;1.88;;;;;;;;;;4922189;29;20025;-95
2023/05/03 14:42:16;;;;;;;5.13;2.08;;;;;;;;;;4921876;29;20031;-94
2023/05/03 14:44:43;;;;;;;8.75;2.70;;;;;;;;;;4922147;29;20319;-95
2023/05/03 14:47:09;;;;;;;7.53;2.10;;;;;;;;;;4920910;29;20028;-95
2023/05/03 14:49:39;;;;;;;3.35;2.20;;;;;;;;;;4921952;29;20344;-95
2023/05/03 14:52:08;;;;;;;8.98;2.70;;;;;;;;;;4921719;29;20037;-95
2023/05/03 14:54:34;;;;;;;3.97;2.30;;;;;;;;;;4920809;29;20024;-94
2023/05/03 14:57:01;;;;;;;5.40;2.13;;;;;;;;;;4921573;29;20426;-94
2023/05/03 14:59:27;;;;;;;3.70;2.33;;;;;;;;;;4922047;29;20028;-95
2023/05/03 15:01:53;;;;;;;4.85;2.28;;;;;;;;;;4921540;29;20055;-94
2023/05/03 15:04:20;;;;;;;4.10;2.20;;;;;;;;;;4920753;29;20028;-94
2023/05/03 15:06:46;;;;;;;5.28;2.63;;;;;;;;;;4921506;29;20068;-94
2023/05/03 15:09:12;;;;;;;7.80;2.13;;;;;;;;;;4921727;29;20032;-94
2023/05/03 15:11:42;;;;;;;6.10;2.30;;;;;;;;;;4921383;29;20028;-95
2023/05/03 15:14:08;;;;;;;3.00;2.25;;;;;;;;;;4920745;29;20040;-95
2023/05/03 15:16:36;;;;;;;4.57;2.10;;;;;;;;;;4919771;29;20044;-95
2023/05/03 15:19:02;;;;;;;4.70;2.45;;;;;;;;;;4921543;29;20028;-95
2023/05/03 15:21:28;;;;;;;6.25;3.58;;;;;;;;;;4920484;29;20043;-95
2023/05/03 15:23:55;;;;;;;7.30;2.60;;;;;;;;;;4921624;29;20032;-94
2023/05/03 15:26:23;;;;;;;5.07;2.30;;;;;;;;;;4921496;29;20080;-95
2023/05/03 15:28:49;;;;;;;5.45;2.60;;;;;;;;;;4920583;29;20115;-94
2023/05/03 15:31:16;;;;;;;10.00;2.67;;;;;;;;;;4937397;29;20047;-94
2023/05/03 15:33:43;;;;;;;2.90;2.00;;;;;;;;;;4940356;29;20406;-94